createdAt,value
2019-03-20T00:00:56.692Z,7.34
2019-03-20T00:03:25.965Z,7.32
2019-03-20T00:05:55.464Z,7.35
2019-03-20T00:08:24.729Z,7.44
2019-03-20T00:10:53.962Z,7.34
2019-03-20T00:13:23.514Z,7.45
2019-03-20T00:15:52.734Z,7.47
2019-03-20T00:18:22.035Z,7.45
2019-03-20T00:20:51.506Z,7.37
2019-03-20T00:23:40.599Z,7.35
2019-03-20T00:26:09.787Z,7.23
2019-03-20T00:28:39.369Z,7.23
2019-03-20T00:31:08.613Z,7.28
2019-03-20T00:44:46.605Z,7.45
2019-03-20T00:47:15.967Z,7.52
2019-03-20T00:49:45.699Z,7.36
2019-03-20T00:52:14.935Z,7.35
2019-03-20T00:54:44.670Z,7.30
2019-03-20T00:57:16.120Z,7.12
2019-03-20T00:59:46.339Z,7.19
2019-03-20T01:02:15.595Z,7.16
2019-03-20T01:04:44.779Z,7.14
2019-03-20T01:07:14.029Z,7.17
2019-03-20T01:09:43.236Z,7.28
2019-03-20T01:12:12.474Z,7.31
2019-03-20T01:14:41.992Z,7.23
2019-03-20T01:17:11.247Z,7.32
2019-03-20T01:19:40.435Z,7.24
2019-03-20T01:22:09.683Z,7.26
2019-03-20T01:24:38.885Z,7.21
2019-03-20T01:27:08.148Z,7.11
2019-03-20T01:29:37.618Z,7.07
2019-03-20T01:32:06.804Z,7.04
2019-03-20T01:34:36.328Z,7.02
2019-03-20T01:37:05.516Z,6.96
2019-03-20T01:39:34.786Z,6.83
2019-03-20T01:42:04.074Z,6.77
2019-03-20T01:44:33.322Z,6.72
2019-03-20T01:47:02.811Z,6.59
2019-03-20T01:52:07.095Z,6.50
2019-03-20T01:54:36.363Z,6.59
2019-03-20T01:57:05.878Z,6.63
2019-03-20T01:59:35.064Z,6.77
2019-03-20T02:02:06.108Z,6.89
2019-03-20T02:04:35.310Z,6.84
2019-03-20T02:07:04.562Z,6.81
2019-03-20T02:09:33.750Z,6.71
2019-03-20T02:12:02.992Z,6.62
2019-03-20T02:14:32.194Z,6.57
2019-03-20T02:17:01.717Z,6.53
2019-03-20T02:19:31.189Z,6.47
2019-03-20T02:22:00.433Z,6.39
2019-03-20T02:24:29.754Z,6.18
2019-03-20T02:26:58.931Z,6.04
2019-03-20T02:29:31.913Z,6.01
2019-03-20T02:32:01.094Z,6.02
2019-03-20T02:34:30.346Z,6.07
2019-03-20T02:36:59.534Z,6.04
2019-03-20T02:39:28.785Z,6.05
2019-03-20T02:41:57.978Z,6.04
2019-03-20T02:44:27.216Z,5.99
2019-03-20T02:46:56.679Z,5.97
2019-03-20T02:49:25.938Z,6.12
2019-03-20T02:51:55.401Z,6.17
2019-03-20T02:54:24.647Z,6.18
2019-03-20T02:56:53.893Z,6.15
2019-03-20T02:59:23.135Z,6.16
2019-03-20T03:01:52.324Z,6.09
2019-03-20T03:04:21.565Z,6.03
2019-03-20T03:06:50.770Z,5.97
2019-03-20T03:09:20.023Z,5.90
2019-03-20T03:11:49.553Z,5.78
2019-03-20T03:14:19.070Z,5.66
2019-03-20T03:16:48.380Z,5.60
2019-03-20T03:19:17.631Z,5.56
2019-03-20T03:21:46.815Z,5.56
2019-03-20T03:24:16.055Z,5.53
2019-03-20T03:26:45.253Z,5.49
2019-03-20T03:29:14.775Z,5.56
2019-03-20T03:31:50.978Z,5.69
2019-03-20T03:34:20.231Z,5.69
2019-03-20T03:36:49.431Z,5.58
2019-03-20T03:41:53.619Z,5.37
2019-03-20T03:44:22.863Z,5.24
2019-03-20T03:46:52.043Z,5.16
2019-03-20T03:49:21.291Z,5.17
2019-03-20T03:51:50.490Z,5.17
2019-03-20T03:54:20.082Z,5.21
2019-03-20T03:57:29.103Z,5.43
2019-03-20T03:59:58.348Z,5.51
2019-03-20T04:02:27.539Z,5.59
2019-03-20T04:04:56.784Z,5.66
2019-03-20T04:07:25.984Z,5.58
2019-03-20T04:09:55.242Z,5.65
2019-03-20T04:12:24.447Z,5.70
2019-03-20T04:14:53.703Z,5.67
2019-03-20T04:17:27.417Z,5.73
2019-03-20T04:19:56.676Z,5.76
2019-03-20T04:22:25.891Z,5.70
2019-03-20T04:24:55.126Z,5.74
2019-03-20T04:27:24.337Z,5.65
2019-03-20T04:29:53.567Z,5.68
2019-03-20T04:32:22.767Z,5.63
2019-03-20T04:34:52.022Z,5.66
2019-03-20T04:37:21.222Z,5.56
2019-03-20T04:39:50.473Z,5.55
2019-03-20T04:42:19.673Z,5.51
2019-03-20T04:44:48.916Z,5.56
2019-03-20T04:47:18.115Z,5.60
2019-03-20T04:49:47.355Z,5.65
2019-03-20T04:52:16.568Z,5.71
2019-03-20T04:54:45.830Z,5.52
2019-03-20T04:57:15.081Z,5.53
2019-03-20T04:59:44.313Z,5.51
2019-03-20T05:02:13.494Z,5.60
2019-03-20T05:04:42.752Z,5.60
2019-03-20T05:07:11.952Z,5.59
2019-03-20T05:09:41.234Z,5.53
2019-03-20T05:12:10.439Z,5.61
2019-03-20T05:14:39.702Z,5.65
2019-03-20T05:17:08.883Z,5.66
2019-03-20T05:19:38.137Z,5.66
2019-03-20T05:22:07.655Z,5.77
2019-03-20T05:24:36.858Z,5.77
2019-03-20T05:27:06.115Z,5.84
2019-03-20T05:29:35.291Z,5.77
2019-03-20T05:32:04.540Z,5.74
2019-03-20T05:34:33.722Z,5.74
2019-03-20T05:37:10.302Z,5.71
2019-03-20T05:39:33.928Z,5.65
2019-03-20T05:42:03.191Z,5.74
2019-03-20T05:44:32.403Z,5.73
2019-03-20T05:47:01.652Z,5.71
2019-03-20T05:49:30.856Z,5.75
2019-03-20T05:52:00.109Z,5.78
2019-03-20T05:54:29.302Z,5.84
2019-03-20T05:56:58.628Z,5.80
2019-03-20T05:59:27.808Z,5.77
2019-03-20T06:02:16.131Z,5.69
2019-03-20T06:04:45.328Z,5.58
2019-03-20T06:07:21.569Z,5.67
2019-03-20T06:09:45.489Z,5.70
2019-03-20T06:12:14.734Z,5.77
2019-03-20T06:14:43.935Z,5.84
2019-03-20T06:17:13.180Z,5.86
2019-03-20T06:19:42.365Z,5.93
2019-03-20T06:22:11.950Z,6.01
2019-03-20T06:24:41.150Z,5.87
2019-03-20T06:27:10.757Z,5.94
2019-03-20T06:29:39.983Z,6.04
2019-03-20T06:34:44.129Z,6.23
2019-03-20T06:37:13.370Z,6.34
2019-03-20T06:39:42.571Z,6.34
2019-03-20T06:42:11.911Z,6.40
2019-03-20T06:44:41.104Z,6.53
2019-03-20T06:47:10.684Z,6.65
2019-03-20T06:49:39.944Z,6.74
2019-03-20T06:52:09.467Z,6.81
2019-03-20T06:54:38.659Z,6.88
2019-03-20T06:57:07.960Z,7.00
2019-03-20T07:00:15.421Z,7.03
2019-03-20T07:02:47.840Z,6.95
2019-03-20T07:05:40.903Z,6.99
2019-03-20T07:08:09.911Z,7.03
2019-03-20T07:11:18.643Z,7.21
2019-03-20T07:13:50.458Z,7.28
2019-03-20T07:16:18.812Z,7.45
2019-03-20T07:18:48.055Z,7.60
2019-03-20T07:21:18.781Z,7.76
2019-03-20T07:23:48.191Z,7.82
2019-03-20T07:26:17.500Z,7.85
2019-03-20T07:28:46.760Z,7.84
2019-03-20T07:31:18.165Z,8.00
2019-03-20T07:33:47.404Z,8.19
2019-03-20T07:36:16.592Z,8.31
2019-03-20T07:38:45.845Z,8.51
2019-03-20T07:41:15.043Z,8.57
2019-03-20T07:43:44.296Z,8.50
2019-03-20T07:46:13.495Z,8.61
2019-03-20T07:48:42.739Z,8.59
2019-03-20T07:51:11.926Z,8.37
2019-03-20T07:53:41.181Z,8.27
2019-03-20T07:56:10.739Z,8.42
2019-03-20T07:58:40.059Z,8.46
2019-03-20T08:01:09.375Z,8.64
2019-03-20T08:06:30.928Z,9.30
2019-03-20T08:09:00.692Z,9.63
2019-03-20T08:11:30.074Z,9.32
2019-03-20T08:16:34.614Z,9.84
2019-03-20T08:19:04.082Z,10.13
2019-03-20T08:21:33.414Z,10.33
2019-03-20T08:24:02.845Z,10.40
2019-03-20T08:26:31.998Z,10.00
2019-03-20T08:29:01.248Z,9.80
2019-03-20T08:31:30.433Z,9.38
2019-03-20T08:33:59.675Z,9.11
2019-03-20T08:36:28.873Z,9.30
2019-03-20T08:38:58.073Z,9.49
2019-03-20T08:41:27.315Z,9.43
2019-03-20T08:43:56.509Z,9.69
2019-03-20T08:46:25.771Z,10.09
2019-03-20T08:48:55.255Z,10.43
2019-03-20T08:51:24.671Z,10.56
2019-03-20T08:53:56.256Z,10.03
2019-03-20T08:59:34.444Z,10.21
2019-03-20T09:02:03.936Z,10.55
2019-03-20T09:04:35.684Z,10.44
2019-03-20T09:07:04.436Z,10.36
2019-03-20T09:09:33.684Z,10.26
2019-03-20T09:12:02.887Z,10.37
2019-03-20T09:14:32.141Z,10.63
2019-03-20T09:17:01.346Z,11.00
2019-03-20T09:19:30.960Z,11.23
2019-03-20T09:22:00.328Z,11.38
2019-03-20T09:24:29.511Z,11.58
2019-03-20T09:26:58.774Z,11.65
2019-03-20T09:29:35.697Z,11.71
2019-03-20T09:31:58.952Z,11.72
2019-03-20T09:34:28.159Z,11.86
2019-03-20T09:36:57.671Z,11.91
2019-03-20T09:39:26.869Z,11.86
2019-03-20T09:41:56.510Z,11.95
2019-03-20T09:44:26.161Z,11.96
2019-03-20T09:46:55.426Z,12.03
2019-03-20T09:49:24.626Z,12.08
2019-03-20T09:51:53.878Z,12.07
2019-03-20T09:54:23.413Z,11.77
2019-03-20T09:56:52.714Z,11.80
2019-03-20T09:59:21.920Z,12.00
2019-03-20T10:01:51.174Z,12.23
2019-03-20T10:04:20.650Z,12.44
2019-03-20T10:06:50.053Z,12.42
2019-03-20T10:09:19.277Z,12.39
2019-03-20T10:11:48.567Z,12.35
2019-03-20T10:14:17.784Z,12.30
2019-03-20T10:16:47.001Z,12.13
2019-03-20T10:19:16.355Z,12.12
2019-03-20T10:21:45.553Z,12.11
2019-03-20T10:24:14.816Z,11.68
2019-03-20T10:26:44.011Z,11.44
2019-03-20T10:29:13.397Z,11.09
2019-03-20T10:31:42.596Z,10.99
2019-03-20T10:34:11.843Z,11.02
2019-03-20T10:36:41.046Z,10.93
2019-03-20T10:42:04.047Z,10.54
2019-03-20T10:44:33.501Z,10.41
2019-03-20T10:47:02.932Z,10.56
2019-03-20T10:49:32.897Z,10.80
2019-03-20T10:55:10.881Z,11.22
2019-03-20T10:57:40.768Z,11.40
2019-03-20T13:05:40.634Z,10.54
2019-03-20T13:08:09.890Z,10.65
2019-03-20T13:10:58.163Z,10.87
2019-03-20T13:13:28.129Z,11.00
2019-03-20T13:15:57.338Z,10.72
2019-03-20T13:18:26.606Z,10.78
2019-03-20T13:20:55.949Z,11.05
2019-03-20T13:23:27.346Z,11.41
2019-03-20T13:25:56.547Z,11.73
2019-03-20T13:28:26.376Z,11.81
2019-03-20T13:30:58.986Z,12.02
2019-03-20T13:33:28.180Z,12.14
2019-03-20T13:35:57.419Z,12.17
2019-03-20T13:38:26.746Z,12.12
2019-03-20T13:40:55.995Z,12.07
2019-03-20T13:43:25.223Z,12.05
2019-03-20T13:45:54.834Z,12.31
2019-03-20T13:48:24.049Z,12.53
2019-03-20T13:50:53.293Z,12.64
2019-03-20T13:53:22.536Z,12.76
2019-03-20T13:55:52.315Z,12.93
2019-03-20T13:58:26.654Z,12.96
2019-03-20T14:01:03.023Z,13.07
2019-03-20T14:03:32.576Z,13.12
2019-03-20T14:06:02.175Z,13.08
2019-03-20T14:08:31.543Z,13.02
2019-03-20T14:11:01.597Z,13.09
2019-03-20T14:13:30.794Z,13.41
2019-03-20T14:16:00.059Z,13.57
2019-03-20T14:18:29.301Z,13.75
2019-03-20T14:20:58.596Z,13.63
2019-03-20T14:23:27.861Z,13.77
2019-03-20T14:25:57.252Z,14.06
2019-03-20T14:28:26.562Z,14.32
2019-03-20T14:30:55.773Z,14.39
2019-03-20T14:33:25.034Z,14.19
2019-03-20T14:35:54.304Z,14.48
2019-03-20T14:38:25.552Z,14.91
2019-03-20T14:40:54.981Z,15.40
2019-03-20T14:43:24.250Z,14.96
2019-03-20T14:45:53.454Z,15.55
2019-03-20T14:48:23.037Z,16.00
2019-03-20T14:50:52.256Z,16.39
2019-03-20T14:53:21.544Z,16.49
2019-03-20T14:55:51.267Z,16.06
2019-03-20T14:58:20.641Z,15.50
2019-03-20T15:00:49.833Z,15.40
2019-03-20T15:03:19.170Z,15.50
2019-03-20T15:05:48.734Z,16.07
2019-03-20T15:08:18.391Z,16.69
2019-03-20T15:10:47.610Z,17.20
2019-03-20T15:13:16.882Z,17.62
2019-03-20T15:15:49.395Z,17.94
2019-03-20T15:18:18.765Z,18.32
2019-03-20T15:20:48.003Z,18.62
2019-03-20T15:23:17.269Z,18.79
2019-03-20T15:25:46.843Z,19.51
2019-03-20T15:28:16.149Z,20.93
2019-03-20T15:30:45.346Z,22.53
2019-03-20T15:33:14.590Z,24.02
2019-03-20T15:35:44.741Z,25.58
2019-03-20T15:38:13.996Z,26.96
2019-03-20T15:40:43.478Z,28.17
2019-03-20T15:43:12.732Z,28.96
2019-03-20T15:45:41.924Z,27.65
2019-03-20T15:48:11.188Z,28.93
2019-03-20T15:50:40.381Z,30.35
2019-03-20T15:53:09.633Z,30.89
2019-03-20T15:55:38.850Z,31.23
2019-03-20T15:58:08.194Z,32.01
2019-03-20T16:00:38.013Z,32.46
2019-03-20T16:03:10.756Z,32.29
2019-03-20T16:08:35.172Z,32.14
2019-03-20T16:11:06.810Z,31.09
2019-03-20T16:13:35.400Z,30.42
2019-03-20T16:16:04.612Z,29.47
2019-03-20T16:18:33.870Z,28.95
2019-03-20T16:21:03.129Z,28.75
2019-03-20T16:23:34.146Z,28.36
2019-03-20T16:26:03.363Z,27.84
2019-03-20T16:28:32.661Z,26.71
2019-03-20T16:31:02.008Z,25.15
2019-03-20T16:33:31.204Z,22.80
2019-03-20T16:36:00.742Z,20.78
2019-03-20T16:38:29.943Z,18.84
2019-03-20T16:40:59.189Z,17.53
2019-03-20T16:43:28.385Z,16.62
2019-03-20T16:45:58.029Z,15.90
2019-03-20T16:48:27.245Z,15.33
2019-03-20T16:50:56.502Z,14.81
2019-03-20T16:53:25.705Z,14.41
2019-03-20T16:55:54.976Z,14.08
2019-03-20T16:58:24.245Z,13.89
2019-03-20T17:00:53.823Z,13.70
2019-03-20T17:03:23.046Z,13.53
2019-03-20T17:05:52.263Z,13.33
2019-03-20T17:08:21.511Z,13.24
2019-03-20T17:10:50.705Z,13.09
2019-03-20T17:13:19.956Z,12.97
2019-03-20T17:15:49.160Z,12.72
2019-03-20T17:18:18.405Z,12.60
2019-03-20T17:20:47.604Z,12.44
2019-03-20T17:23:16.878Z,12.38
2019-03-20T17:25:46.082Z,12.31
2019-03-20T17:28:15.712Z,12.19
2019-03-20T17:30:44.926Z,12.01
2019-03-20T17:33:42.787Z,11.94
2019-03-20T17:36:14.538Z,11.89
2019-03-20T17:39:21.197Z,11.79
2019-03-20T17:41:50.820Z,11.72
2019-03-20T17:44:20.031Z,11.62
2019-03-20T17:46:49.224Z,11.57
2019-03-20T17:51:53.106Z,11.39
2019-03-20T17:56:57.614Z,11.27
2019-03-20T17:59:27.296Z,11.15
2019-03-20T18:01:56.808Z,11.15
2019-03-20T18:04:26.126Z,11.12
2019-03-20T18:06:55.335Z,11.06
2019-03-20T18:09:24.587Z,11.00
2019-03-20T18:11:53.791Z,10.97
2019-03-20T18:14:23.344Z,10.96
2019-03-20T18:16:52.602Z,10.91
2019-03-20T18:19:21.906Z,10.91
2019-03-20T18:21:51.122Z,10.83
2019-03-20T18:24:20.417Z,10.69
2019-03-20T18:26:49.647Z,10.76
2019-03-20T18:29:18.911Z,10.79
2019-03-20T18:31:48.116Z,10.74
2019-03-20T18:34:17.368Z,10.67
2019-03-20T18:36:46.581Z,10.67
2019-03-20T18:39:15.849Z,10.60
2019-03-20T18:41:45.601Z,10.56
2019-03-20T18:44:14.958Z,10.56
2019-03-20T18:46:44.156Z,10.56
2019-03-20T18:49:13.406Z,10.55
2019-03-20T18:51:42.637Z,10.53
2019-03-20T18:54:11.903Z,10.49
2019-03-20T18:56:41.095Z,10.41
2019-03-20T18:59:10.397Z,10.35
2019-03-20T19:01:59.206Z,10.32
2019-03-20T19:04:28.887Z,10.30
2019-03-20T19:06:58.091Z,10.09
2019-03-20T19:12:08.729Z,9.85
2019-03-20T19:14:36.279Z,9.91
2019-03-20T19:17:05.516Z,9.85
2019-03-20T19:19:34.796Z,9.91
2019-03-20T19:22:04.016Z,9.98
2019-03-20T19:24:33.225Z,10.00
2019-03-20T19:27:02.520Z,10.04
2019-03-20T19:29:31.737Z,9.96
2019-03-20T19:32:01.293Z,9.87
2019-03-20T19:34:30.640Z,9.81
2019-03-20T19:36:59.885Z,9.80
2019-03-20T19:39:29.976Z,9.63
2019-03-20T19:41:59.223Z,9.52
2019-03-20T19:44:29.121Z,9.41
2019-03-20T19:46:58.433Z,9.37
2019-03-20T19:49:27.653Z,9.37
2019-03-20T19:51:56.996Z,9.37
2019-03-20T19:54:26.450Z,9.50
2019-03-20T19:56:56.104Z,9.48
2019-03-20T19:59:26.087Z,9.41
2019-03-20T20:04:55.578Z,9.52
2019-03-20T20:07:24.855Z,9.53
2019-03-20T20:09:54.167Z,9.55
2019-03-20T20:12:31.204Z,9.60
2019-03-20T20:14:55.376Z,9.55
2019-03-20T20:17:24.811Z,9.52
2019-03-20T20:19:54.769Z,9.35
2019-03-20T20:22:23.983Z,9.19
2019-03-20T20:24:53.260Z,9.10
2019-03-20T20:27:22.470Z,9.16
2019-03-20T20:29:51.751Z,9.07
2019-03-20T20:32:20.962Z,9.05
2019-03-20T20:34:50.231Z,9.14
2019-03-20T20:37:19.753Z,9.19
2019-03-20T20:39:49.138Z,9.23
2019-03-20T20:42:18.299Z,9.20
2019-03-20T20:44:47.590Z,9.10
2019-03-20T20:47:16.796Z,8.97
2019-03-20T20:49:46.049Z,8.81
2019-03-20T20:52:19.657Z,8.63
2019-03-20T20:54:47.150Z,8.62
2019-03-20T20:57:16.794Z,8.62
2019-03-20T20:59:46.657Z,8.72
2019-03-20T21:02:15.860Z,8.81
2019-03-20T21:04:45.445Z,8.78
2019-03-20T21:07:14.640Z,8.70
2019-03-20T21:09:43.889Z,8.73
2019-03-20T21:12:13.082Z,8.72
2019-03-20T21:14:43.479Z,8.71
2019-03-20T21:17:17.646Z,8.72
2019-03-20T21:19:47.529Z,8.76
2019-03-20T21:22:54.794Z,8.74
2019-03-20T21:25:24.915Z,8.66
2019-03-20T21:28:21.616Z,8.47
2019-03-20T21:31:29.796Z,8.37
2019-03-20T21:34:38.087Z,8.22
2019-03-20T21:37:46.424Z,8.13
2019-03-20T21:40:19.138Z,7.96
2019-03-20T21:43:26.988Z,7.89
2019-03-20T21:46:34.254Z,7.86
2019-03-20T21:49:04.230Z,7.80
2019-03-20T21:51:33.976Z,7.66
2019-03-20T21:54:41.966Z,7.56
2019-03-20T21:57:51.834Z,7.47
2019-03-20T22:00:58.480Z,7.40
2019-03-20T22:03:28.219Z,7.36
2019-03-20T22:06:35.724Z,7.37
2019-03-20T22:09:42.994Z,7.38
2019-03-20T22:12:40.305Z,7.33
2019-03-20T22:15:32.455Z,7.32
2019-03-20T22:21:41.478Z,7.37
2019-03-20T22:24:29.503Z,7.36
2019-03-20T22:27:40.472Z,7.35
2019-03-20T22:30:10.784Z,7.35
2019-03-20T22:36:20.547Z,7.22
2019-03-20T22:39:27.872Z,7.17
2019-03-20T22:45:27.789Z,7.23
2019-03-20T22:48:32.918Z,7.21
2019-03-20T22:51:24.150Z,7.14
2019-03-20T22:54:31.431Z,7.01
2019-03-20T22:57:23.901Z,6.93
2019-03-20T22:59:53.965Z,6.85
2019-03-20T23:03:01.292Z,6.80
2019-03-20T23:05:31.217Z,6.80
2019-03-20T23:08:00.960Z,6.70
2019-03-20T23:10:30.766Z,6.69
2019-03-20T23:13:00.521Z,6.69
2019-03-20T23:15:30.249Z,6.73
2019-03-20T23:18:00.032Z,6.72
2019-03-20T23:20:30.014Z,6.80
2019-03-20T23:22:59.799Z,6.87
2019-03-20T23:25:29.539Z,6.89
2019-03-20T23:27:59.900Z,6.82
2019-03-20T23:30:29.644Z,6.83
2019-03-20T23:32:59.431Z,6.89
2019-03-20T23:35:29.169Z,6.85
2019-03-20T23:37:58.896Z,6.79
2019-03-20T23:40:28.676Z,6.67
2019-03-20T23:42:58.880Z,6.60
2019-03-20T23:45:28.671Z,6.56
2019-03-20T23:48:18.816Z,6.54
2019-03-20T23:50:50.029Z,6.43
2019-03-20T23:53:20.120Z,6.39
2019-03-20T23:55:49.856Z,6.31
2019-03-20T23:58:19.707Z,6.35
